Airfield :
LOGIN :

Register | Disclaimer

   EN    FR    IT 

 










Legend :    VFR   Marginal VFR   IFR   Intensive IFR   Very Intensive IFR
Visi :
Ceiling :
>= 8 km
>= 3000ft
5 to 8 km
1000 to 3000 ft
1500m to 5 km
500 to 1000 ft
800 to 1500m
200 to 500 ft
< 800m
< 200 ft
Symbols :   Thunderstorms  Fog  Heavy snow  Heavy precipitations  Wind > 20 kt
SIGMETs :     Misc.  Thunderstorms  Icing  Turbulence  Mountain Waves  Volcanic Ashes







- Airport Elevation : 870 ft
- IATA code : ETZ
- Download approach charts


LFJL - Metz Nancy Lorraine

CURRENT METAR :
  • 182100Z AUTO 22012KT 9999 -RA FEW029 OVC035 04/03 Q1020 TEMPO 22015G25KT 4000 RA BKN009

EXPIRED METARs :
  • 182030Z AUTO 22012KT 9999 -RA OVC040 04/03 Q1021 TEMPO 22015G25KT 4000 RA BKN009
  • 182000Z AUTO 22011KT 9999 OVC042 04/02 Q1021 TEMPO 22015G25KT 4000 RA BKN009
  • 181930Z AUTO 22012KT 9999 BKN046 OVC052 04/02 Q1021 TEMPO 22015G25KT 4000 RA BKN009
  • 181900Z AUTO 22011KT CAVOK 04/02 Q1021 TEMPO 22015G25KT 4000 RA BKN009
  • 181830Z AUTO 22010KT CAVOK 04/02 Q1022 TEMPO 22015G25KT 4000 RA BKN009

TAF TAF LFJL
Valid from the 18 at 18:00 until the 19 at 18:00 UTC


181700Z 1818/1918 25010KT 9999 BKN035
TEMPO 1820/1906 22015G25KT 4000 RA BKN009
BECMG 1906/1909 30010KT SCT025
No reported NOTAMs for that airfield.



MET'MAP, your aeronautical weather chart ! - Copyright ORBIFLY December 2007 - Disclaimer

ORBIFLY MET'MAP TEAM :

Programming & Development : Alexandra Zaïnal
Concept & Development : Baudouin d'Aumeries
Co-Development & Prog : Marc-Olivier Méhu
Technical & hardware support : Manuel Goepfert

Contact : metmap@orbifly.com




SOURCES & CREDITS :

   NOAA